Time;durP1;ratioP1;P1;durP2;ratioP2;P2;SDS_P1;SDS_P2;PMS_P1;PMS_P2;Temp;Humidity;BMP_temperature;BMP_pressure;BME280_temperature;BME280_humidity;BME280_pressure;Samples;Min_cycle;Max_cycle;Signal;HPM_P1;HPM_P2
2023/10/02 00:01:24;;;;;;;16.52;7.95;;;17.10;99.90;;;;;;4981226;28;20564;-35
2023/10/02 00:04:16;;;;;;;15.98;7.32;;;17.00;99.90;;;;;;4985476;28;20141;-36
2023/10/02 00:06:37;;;;;;;15.02;7.18;;;17.00;99.90;;;;;;4985074;28;20054;-35
2023/10/02 00:09:04;;;;;;;12.00;6.88;;;17.10;99.90;;;;;;4986431;28;20054;-35
2023/10/02 00:11:39;;;;;;;14.98;7.72;;;17.10;99.90;;;;;;4985833;28;20085;-34
2023/10/02 00:14:19;;;;;;;17.85;8.57;;;17.10;99.90;;;;;;4985564;28;20046;-34
2023/10/02 00:17:00;;;;;;;14.45;7.50;;;17.10;99.90;;;;;;4982727;28;20178;-34
2023/10/02 00:19:33;;;;;;;14.82;7.90;;;17.10;99.90;;;;;;4985866;28;20171;-34
2023/10/02 00:22:08;;;;;;;15.82;7.50;;;17.10;99.90;;;;;;4982971;28;20058;-34
2023/10/02 00:24:41;;;;;;;13.45;7.65;;;17.10;99.90;;;;;;4971935;28;20161;-34
2023/10/02 00:27:10;;;;;;;12.90;7.25;;;17.10;99.90;;;;;;4988505;28;20065;-34
2023/10/02 00:29:51;;;;;;;13.63;7.20;;;17.20;99.90;;;;;;4985778;28;20046;-35
2023/10/02 00:32:19;;;;;;;12.90;7.50;;;17.10;99.90;;;;;;4988443;28;20054;-34
2023/10/02 00:34:50;;;;;;;14.55;7.70;;;17.10;99.90;;;;;;4990930;28;20055;-34
2023/10/02 00:37:16;;;;;;;15.10;6.93;;;17.10;99.90;;;;;;4987317;28;20173;-34
2023/10/02 00:39:47;;;;;;;14.75;7.68;;;17.20;99.90;;;;;;4991647;28;20108;-34
2023/10/02 00:42:17;;;;;;;12.05;6.75;;;17.20;99.90;;;;;;4980884;28;20124;-34
2023/10/02 00:44:54;;;;;;;15.77;8.35;;;17.20;99.90;;;;;;4989967;28;20057;-34
2023/10/02 00:50:27;;;;;;;11.80;6.43;;;17.20;99.90;;;;;;4946203;28;20051;-34
2023/10/02 00:53:00;;;;;;;14.50;7.47;;;17.30;99.90;;;;;;4948503;28;20059;-34
2023/10/02 00:55:34;;;;;;;14.15;7.32;;;17.20;99.90;;;;;;4969325;28;20054;-34
2023/10/02 00:58:02;;;;;;;15.60;7.25;;;17.30;99.90;;;;;;4987426;28;20062;-34
2023/10/02 01:00:36;;;;;;;14.48;6.95;;;17.30;99.90;;;;;;4986471;28;20050;-34
2023/10/02 01:03:15;;;;;;;13.93;7.55;;;17.30;99.90;;;;;;4985342;28;20050;-34
2023/10/02 01:05:42;;;;;;;13.15;6.45;;;17.30;99.90;;;;;;4987788;28;20085;-34
2023/10/02 01:08:23;;;;;;;14.35;6.72;;;17.30;99.90;;;;;;4987331;28;20050;-34
2023/10/02 01:11:00;;;;;;;13.43;7.40;;;17.20;99.90;;;;;;4989146;28;20046;-35
2023/10/02 01:13:30;;;;;;;12.93;6.50;;;17.20;99.90;;;;;;4982850;28;20058;-34
2023/10/02 01:15:59;;;;;;;14.45;7.43;;;17.20;99.90;;;;;;4986035;28;20053;-37
2023/10/02 01:18:29;;;;;;;14.95;7.80;;;17.20;99.90;;;;;;4986044;28;20507;-34
2023/10/02 01:21:00;;;;;;;12.20;6.90;;;17.20;99.90;;;;;;4984482;28;20056;-35
2023/10/02 01:23:31;;;;;;;15.45;7.22;;;17.20;99.90;;;;;;4984432;28;20081;-34
2023/10/02 01:26:00;;;;;;;17.10;7.80;;;17.10;99.90;;;;;;4988329;28;20466;-35
2023/10/02 01:28:52;;;;;;;14.45;6.88;;;17.10;99.90;;;;;;4988161;28;20065;-34
2023/10/02 01:31:40;;;;;;;12.45;6.63;;;17.20;99.90;;;;;;4985242;28;20046;-35
2023/10/02 01:34:06;;;;;;;13.38;7.55;;;17.10;99.90;;;;;;4985615;28;20104;-35
2023/10/02 01:36:33;;;;;;;17.52;7.93;;;17.10;99.90;;;;;;4985181;28;20053;-36
2023/10/02 01:39:15;;;;;;;17.25;7.95;;;17.10;99.90;;;;;;4988186;28;20047;-35
2023/10/02 01:41:48;;;;;;;16.00;7.80;;;17.10;99.90;;;;;;4980576;28;20100;-35
2023/10/02 01:44:20;;;;;;;15.50;7.65;;;17.10;99.90;;;;;;4987961;28;20058;-35
2023/10/02 01:46:52;;;;;;;19.13;7.07;;;17.10;99.90;;;;;;4987462;28;20485;-37
2023/10/02 01:49:25;;;;;;;14.27;7.40;;;17.10;99.90;;;;;;4985396;28;20061;-35
2023/10/02 01:51:57;;;;;;;15.23;7.90;;;17.10;99.90;;;;;;4988485;28;20043;-35
2023/10/02 01:54:25;;;;;;;15.07;7.93;;;17.10;99.90;;;;;;4987677;28;20051;-35
2023/10/02 01:56:52;;;;;;;15.02;7.57;;;17.10;99.90;;;;;;4988523;28;20137;-35
2023/10/02 01:59:19;;;;;;;15.40;7.50;;;17.10;99.90;;;;;;4987963;28;20416;-35
2023/10/02 02:01:52;;;;;;;16.35;6.97;;;17.10;99.90;;;;;;4984286;28;20522;-36
2023/10/02 02:04:22;;;;;;;13.05;7.55;;;17.10;99.90;;;;;;4985842;28;20077;-46
2023/10/02 02:06:54;;;;;;;14.43;7.03;;;17.10;99.90;;;;;;4987015;28;20117;-35
2023/10/02 02:09:24;;;;;;;14.50;7.20;;;17.10;99.90;;;;;;4985380;28;20554;-35
2023/10/02 02:12:14;;;;;;;17.33;8.02;;;17.10;99.90;;;;;;4982509;28;20050;-35
2023/10/02 02:14:50;;;;;;;15.02;7.60;;;17.10;99.90;;;;;;4984865;28;20140;-35
2023/10/02 02:17:21;;;;;;;11.98;6.50;;;17.10;99.90;;;;;;4984476;28;20104;-35
2023/10/02 02:19:50;;;;;;;15.63;7.57;;;17.10;99.90;;;;;;4988781;28;20046;-35
2023/10/02 02:22:16;;;;;;;12.23;6.80;;;17.10;99.90;;;;;;4986764;28;20141;-35
2023/10/02 02:24:42;;;;;;;14.07;7.18;;;17.00;99.90;;;;;;4987860;28;20588;-35
2023/10/02 02:27:08;;;;;;;13.45;7.35;;;17.00;99.90;;;;;;4985513;28;20417;-35
2023/10/02 02:29:34;;;;;;;13.30;7.05;;;17.00;99.90;;;;;;4991085;28;20049;-35
2023/10/02 02:32:00;;;;;;;15.13;6.88;;;16.90;99.90;;;;;;4983857;28;20054;-35
2023/10/02 02:34:26;;;;;;;16.85;7.35;;;16.90;99.90;;;;;;4987450;28;20137;-35
2023/10/02 02:36:54;;;;;;;13.57;7.15;;;16.90;99.90;;;;;;4986369;28;21656;-35
2023/10/02 02:39:22;;;;;;;15.50;7.10;;;16.80;99.90;;;;;;4987303;28;20058;-35
2023/10/02 02:42:08;;;;;;;13.00;6.80;;;16.80;99.90;;;;;;4982904;28;20051;-35
2023/10/02 02:44:43;;;;;;;14.90;7.10;;;16.70;99.90;;;;;;4984205;28;20420;-35
2023/10/02 02:47:10;;;;;;;13.60;7.22;;;16.70;99.90;;;;;;4983997;28;20135;-34
2023/10/02 02:49:48;;;;;;;15.50;7.05;;;16.70;99.90;;;;;;4985747;28;20488;-35
2023/10/02 02:52:19;;;;;;;13.68;6.22;;;16.60;99.90;;;;;;4986765;28;20141;-34
2023/10/02 02:54:53;;;;;;;12.90;6.60;;;16.60;99.90;;;;;;4983462;28;20054;-34
2023/10/02 02:57:25;;;;;;;17.27;8.15;;;16.50;99.90;;;;;;4981495;28;20104;-34
2023/10/02 03:00:24;;;;;;;16.40;8.57;;;16.50;99.90;;;;;;4987201;28;20081;-34
2023/10/02 03:02:44;;;;;;;15.25;8.07;;;16.40;99.90;;;;;;4985612;28;20057;-34
2023/10/02 03:05:11;;;;;;;13.65;7.40;;;16.40;99.90;;;;;;4982333;28;20053;-35
2023/10/02 03:07:40;;;;;;;12.07;6.22;;;16.40;99.90;;;;;;4983950;28;20504;-34
2023/10/02 03:10:14;;;;;;;15.52;7.18;;;16.40;99.90;;;;;;4987830;28;20058;-34
2023/10/02 03:12:44;;;;;;;13.65;6.80;;;16.40;99.90;;;;;;4983537;28;20138;-34
2023/10/02 03:15:45;;;;;;;16.65;7.05;;;16.40;99.90;;;;;;4986000;28;20079;-34
2023/10/02 03:18:22;;;;;;;18.08;6.78;;;16.30;99.90;;;;;;4983412;28;20524;-34
2023/10/02 03:20:54;;;;;;;13.02;7.38;;;16.30;99.90;;;;;;4984822;28;20058;-34
2023/10/02 03:23:20;;;;;;;11.82;6.38;;;16.30;99.90;;;;;;4987136;28;20046;-35
2023/10/02 03:25:47;;;;;;;14.35;7.18;;;16.30;99.90;;;;;;4985835;28;20416;-34
2023/10/02 03:28:27;;;;;;;15.02;7.43;;;16.30;99.90;;;;;;4984236;28;20496;-34
2023/10/02 03:30:53;;;;;;;12.60;6.80;;;16.20;99.90;;;;;;4983848;28;20102;-34
2023/10/02 03:33:20;;;;;;;12.60;6.70;;;16.20;99.90;;;;;;4982322;28;20054;-35
2023/10/02 03:35:58;;;;;;;17.80;7.32;;;16.20;99.90;;;;;;4982800;28;20046;-34
2023/10/02 03:38:25;;;;;;;12.05;5.88;;;16.20;99.90;;;;;;4987058;28;20054;-34
2023/10/02 03:40:58;;;;;;;15.43;7.13;;;16.20;99.90;;;;;;4986586;28;20112;-34
2023/10/02 03:43:42;;;;;;;14.10;7.50;;;16.20;99.90;;;;;;4981171;28;20058;-34
2023/10/02 03:46:15;;;;;;;11.70;6.07;;;16.10;99.90;;;;;;4983134;28;20113;-35
2023/10/02 03:48:41;;;;;;;13.73;6.63;;;16.10;99.90;;;;;;4982805;28;20516;-35
2023/10/02 03:51:07;;;;;;;15.52;7.20;;;16.10;99.90;;;;;;4985013;28;20054;-35
2023/10/02 03:53:35;;;;;;;12.82;6.68;;;16.10;99.90;;;;;;4987984;28;20038;-35
2023/10/02 03:58:51;;;;;;;14.65;6.90;;;16.00;99.90;;;;;;4984227;28;20129;-34
2023/10/02 04:01:26;;;;;;;16.38;7.45;;;16.00;99.90;;;;;;4984362;28;20077;-34
2023/10/02 04:03:56;;;;;;;13.77;6.85;;;16.00;99.90;;;;;;4985033;28;21499;-35
2023/10/02 04:06:33;;;;;;;15.33;7.33;;;16.00;99.90;;;;;;4981886;28;20558;-35
2023/10/02 04:09:12;;;;;;;14.88;7.22;;;16.00;99.90;;;;;;4981625;28;20042;-35
2023/10/02 04:11:39;;;;;;;16.13;8.15;;;16.00;99.90;;;;;;4987037;28;20598;-35
2023/10/02 04:14:18;;;;;;;13.82;7.20;;;16.00;99.90;;;;;;4986384;28;20057;-34
2023/10/02 04:16:46;;;;;;;15.68;7.68;;;16.00;99.90;;;;;;4980565;28;20046;-34
2023/10/02 04:19:23;;;;;;;15.05;7.35;;;16.00;99.90;;;;;;4983679;28;20051;-35
2023/10/02 04:21:53;;;;;;;14.10;7.10;;;16.10;99.90;;;;;;4969795;28;20068;-39
2023/10/02 04:24:23;;;;;;;13.60;6.90;;;16.00;99.90;;;;;;4983754;28;20057;-35
2023/10/02 04:26:54;;;;;;;14.48;7.18;;;16.00;99.90;;;;;;4985161;28;20412;-43
2023/10/02 04:32:04;;;;;;;15.18;6.53;;;16.00;99.90;;;;;;4985864;28;20452;-34
2023/10/02 04:34:31;;;;;;;16.55;7.85;;;16.00;99.90;;;;;;4984223;28;20047;-34
2023/10/02 04:36:57;;;;;;;14.52;6.57;;;16.00;99.90;;;;;;4984948;28;20054;-34
2023/10/02 04:45:16;;;;;;;12.25;6.22;;;16.00;99.90;;;;;;4963240;28;20088;-34
2023/10/02 04:47:42;;;;;;;13.57;6.53;;;16.00;99.90;;;;;;4985330;28;20504;-34
2023/10/02 04:52:55;;;;;;;15.02;7.30;;;15.90;99.90;;;;;;4986766;28;20100;-34
2023/10/02 04:55:31;;;;;;;15.82;7.40;;;15.90;99.90;;;;;;4987014;28;20046;-34
2023/10/02 05:03:49;;;;;;;14.32;7.55;;;15.80;99.90;;;;;;4981889;28;20054;-34
2023/10/02 05:06:39;;;;;;;16.33;7.53;;;15.80;99.90;;;;;;4998855;28;20477;-35
2023/10/02 05:11:46;;;;;;;12.93;6.45;;;15.70;99.90;;;;;;4988294;28;20043;-35
2023/10/02 05:14:14;;;;;;;15.88;7.05;;;15.70;99.90;;;;;;4987005;28;20133;-37
2023/10/02 05:16:42;;;;;;;14.95;7.00;;;15.60;99.90;;;;;;4989308;28;20058;-34
2023/10/02 05:19:09;;;;;;;16.27;6.38;;;15.60;99.90;;;;;;4985768;28;20054;-34
2023/10/02 05:21:38;;;;;;;15.02;6.72;;;15.60;99.90;;;;;;4987707;28;20054;-36
2023/10/02 05:24:06;;;;;;;13.52;6.60;;;15.60;99.90;;;;;;4985593;28;20054;-35
2023/10/02 05:26:36;;;;;;;12.43;5.80;;;15.60;99.90;;;;;;4989369;28;20062;-34
2023/10/02 05:29:06;;;;;;;17.75;6.25;;;15.60;99.90;;;;;;4984040;28;20049;-34
2023/10/02 05:31:35;;;;;;;16.65;7.07;;;15.60;99.90;;;;;;4986193;28;20050;-35
2023/10/02 05:34:13;;;;;;;13.02;6.07;;;15.60;99.90;;;;;;4988645;28;20047;-34
2023/10/02 05:37:03;;;;;;;14.23;6.72;;;15.60;99.90;;;;;;4982812;28;20590;-35
2023/10/02 05:39:31;;;;;;;17.48;8.30;;;15.60;99.90;;;;;;4988696;28;20113;-35
2023/10/02 05:42:05;;;;;;;15.77;7.25;;;15.60;99.90;;;;;;4991213;28;20484;-35
2023/10/02 05:44:35;;;;;;;14.68;6.50;;;15.60;99.90;;;;;;4982713;28;20495;-35
2023/10/02 05:47:07;;;;;;;17.40;7.35;;;15.60;99.90;;;;;;4982459;28;20046;-35
2023/10/02 05:49:48;;;;;;;13.80;6.53;;;15.60;99.90;;;;;;4988661;28;20093;-36
2023/10/02 05:52:18;;;;;;;15.80;7.43;;;15.50;99.90;;;;;;4985760;28;20133;-37
2023/10/02 05:54:47;;;;;;;13.77;7.85;;;15.50;99.90;;;;;;4988943;28;20055;-35
2023/10/02 05:57:17;;;;;;;14.20;7.18;;;15.50;99.90;;;;;;4988848;28;20050;-34
2023/10/02 05:59:48;;;;;;;15.48;6.72;;;15.40;99.90;;;;;;4989413;28;20488;-34
2023/10/02 06:02:19;;;;;;;13.37;6.73;;;15.40;99.90;;;;;;4985057;28;20050;-35
2023/10/02 06:04:52;;;;;;;15.68;7.07;;;15.50;99.90;;;;;;4985328;28;20285;-35
2023/10/02 06:12:48;;;;;;;13.27;6.95;;;15.60;99.90;;;;;;4985539;28;20045;-34
2023/10/02 06:17:59;;;;;;;13.32;6.70;;;15.60;99.90;;;;;;4983828;28;20051;-35
2023/10/02 06:20:25;;;;;;;18.33;7.22;;;15.70;99.90;;;;;;4988651;28;20043;-44
2023/10/02 06:23:03;;;;;;;15.07;6.78;;;15.70;99.90;;;;;;4987286;28;20390;-34
2023/10/02 06:25:29;;;;;;;13.48;6.50;;;15.70;99.90;;;;;;4987887;28;20073;-35
2023/10/02 06:28:14;;;;;;;13.02;6.30;;;15.70;99.90;;;;;;4990422;28;20193;-34
2023/10/02 06:30:40;;;;;;;14.57;6.05;;;15.70;99.90;;;;;;4983440;28;20054;-35
2023/10/02 06:33:08;;;;;;;11.45;5.90;;;15.70;99.90;;;;;;4982278;28;20532;-35
2023/10/02 06:35:33;;;;;;;12.98;6.32;;;15.70;99.90;;;;;;4978166;28;20054;-35
2023/10/02 06:38:15;;;;;;;14.50;7.22;;;15.70;99.90;;;;;;4983346;28;20060;-35
2023/10/02 06:40:55;;;;;;;14.48;6.47;;;15.70;99.90;;;;;;4973993;28;20060;-35
2023/10/02 06:43:30;;;;;;;15.13;6.70;;;15.70;99.90;;;;;;4982035;28;20056;-34
2023/10/02 06:46:07;;;;;;;16.67;6.32;;;15.70;99.90;;;;;;4986761;28;20062;-35
2023/10/02 06:48:39;;;;;;;13.93;6.38;;;15.80;99.90;;;;;;4982665;28;20712;-36
2023/10/02 06:51:07;;;;;;;10.63;5.43;;;15.80;99.90;;;;;;4989493;28;20069;-34
2023/10/02 06:53:33;;;;;;;13.52;6.75;;;15.90;99.90;;;;;;4988647;28;20054;-35
2023/10/02 06:56:06;;;;;;;15.48;7.00;;;15.90;99.90;;;;;;4988572;28;20054;-35
2023/10/02 06:58:56;;;;;;;14.50;6.80;;;16.00;99.90;;;;;;4968516;28;20052;-34
2023/10/02 07:01:28;;;;;;;14.13;6.35;;;16.00;99.90;;;;;;4982801;28;20064;-34
2023/10/02 07:03:56;;;;;;;14.93;6.15;;;16.00;99.90;;;;;;4987855;28;20053;-36
2023/10/02 07:06:27;;;;;;;17.98;7.65;;;16.10;99.90;;;;;;4989236;28;20093;-36
2023/10/02 07:09:10;;;;;;;14.52;6.88;;;16.10;99.90;;;;;;4989068;28;20050;-35
2023/10/02 07:11:45;;;;;;;15.38;7.15;;;16.20;99.90;;;;;;4967893;28;20085;-35
2023/10/02 07:14:12;;;;;;;14.93;7.32;;;16.20;99.90;;;;;;4982437;28;20101;-33
2023/10/02 07:16:37;;;;;;;12.75;7.00;;;16.20;99.90;;;;;;4984441;28;20050;-35
2023/10/02 07:19:04;;;;;;;15.25;7.40;;;16.20;99.90;;;;;;4979419;28;20692;-35
2023/10/02 07:21:30;;;;;;;16.55;7.57;;;16.30;99.90;;;;;;4977872;28;20096;-34
2023/10/02 07:24:03;;;;;;;15.80;6.93;;;16.30;99.90;;;;;;4967268;28;20050;-39
2023/10/02 07:27:22;;;;;;;14.55;7.13;;;16.40;99.90;;;;;;4954964;28;20082;-34
2023/10/02 07:29:19;;;;;;;14.32;6.93;;;16.40;99.90;;;;;;4967372;28;20061;-35
2023/10/02 07:31:45;;;;;;;16.27;8.18;;;16.50;99.90;;;;;;4988709;28;20128;-36
2023/10/02 07:34:12;;;;;;;13.68;6.65;;;16.50;99.90;;;;;;4985381;28;20047;-35
2023/10/02 07:36:44;;;;;;;16.17;7.05;;;16.50;99.90;;;;;;4966529;28;20443;-34
2023/10/02 07:42:04;;;;;;;15.23;6.78;;;16.60;99.90;;;;;;4986771;28;20069;-33
2023/10/02 07:44:39;;;;;;;14.77;7.18;;;16.60;99.90;;;;;;4985137;28;20107;-34
2023/10/02 07:47:18;;;;;;;16.20;7.38;;;16.70;99.90;;;;;;4971214;28;20133;-34
2023/10/02 07:49:47;;;;;;;15.68;6.72;;;16.80;99.90;;;;;;4986211;28;20050;-34
2023/10/02 07:52:26;;;;;;;16.20;7.40;;;16.80;99.90;;;;;;4988028;28;20596;-33
2023/10/02 07:54:59;;;;;;;17.50;8.07;;;16.90;99.90;;;;;;4982313;28;20058;-34
2023/10/02 07:57:32;;;;;;;16.05;8.30;;;16.90;99.90;;;;;;4984618;28;20173;-34
2023/10/02 08:00:33;;;;;;;17.33;8.18;;;17.00;99.90;;;;;;4982963;28;20065;-34
2023/10/02 08:02:52;;;;;;;15.15;7.20;;;17.00;99.90;;;;;;4986060;28;20567;-35
2023/10/02 08:05:20;;;;;;;18.13;8.77;;;17.10;99.90;;;;;;4988645;28;20074;-35
2023/10/02 08:07:47;;;;;;;14.60;7.35;;;17.20;99.90;;;;;;4983783;28;20050;-35
2023/10/02 08:10:14;;;;;;;16.50;8.48;;;17.20;99.90;;;;;;4981493;28;20484;-35
2023/10/02 08:12:54;;;;;;;16.20;8.05;;;17.30;99.90;;;;;;4985992;28;20057;-36
2023/10/02 08:15:26;;;;;;;18.58;9.13;;;17.40;99.90;;;;;;4983371;28;20058;-33
2023/10/02 08:20:32;;;;;;;16.20;7.70;;;17.70;99.90;;;;;;4984410;28;20491;-34
2023/10/02 08:23:01;;;;;;;15.40;7.72;;;17.80;99.90;;;;;;4986032;28;20056;-35
2023/10/02 08:25:27;;;;;;;16.95;8.75;;;17.90;99.90;;;;;;4986335;28;20141;-34
2023/10/02 08:27:57;;;;;;;15.52;7.82;;;18.10;99.90;;;;;;4970878;28;20145;-34
2023/10/02 08:30:36;;;;;;;15.07;7.00;;;18.10;99.90;;;;;;4983962;28;20100;-35
2023/10/02 08:33:06;;;;;;;15.05;7.47;;;18.30;99.90;;;;;;4987546;28;20407;-34
2023/10/02 08:35:33;;;;;;;19.27;9.90;;;18.30;99.90;;;;;;4984979;28;20065;-34
2023/10/02 08:37:59;;;;;;;19.40;9.23;;;18.30;99.90;;;;;;4988701;28;20054;-35
2023/10/02 08:40:26;;;;;;;18.48;9.02;;;18.30;99.90;;;;;;4983777;28;20066;-34
2023/10/02 08:42:53;;;;;;;18.20;8.77;;;18.30;99.90;;;;;;4991028;28;20046;-36
2023/10/02 08:45:20;;;;;;;18.20;8.98;;;18.30;99.90;;;;;;4988066;28;20073;-35
2023/10/02 08:47:49;;;;;;;19.17;10.00;;;18.30;99.90;;;;;;4990946;28;20081;-35
2023/10/02 08:50:18;;;;;;;21.75;9.02;;;18.30;99.90;;;;;;4990980;28;20061;-34
2023/10/02 08:52:50;;;;;;;19.33;8.85;;;18.30;99.90;;;;;;4985925;28;20411;-34
2023/10/02 08:55:36;;;;;;;18.08;9.32;;;18.30;99.90;;;;;;5000082;28;20497;-34
2023/10/02 08:58:18;;;;;;;18.15;8.80;;;18.30;99.90;;;;;;4987271;28;20058;-34
2023/10/02 09:01:17;;;;;;;18.25;8.65;;;18.40;99.90;;;;;;4983554;28;20570;-34
2023/10/02 09:06:41;;;;;;;20.33;10.45;;;18.60;99.90;;;;;;4983141;28;20054;-34
2023/10/02 09:09:26;;;;;;;23.47;10.67;;;18.70;99.90;;;;;;4987626;28;20042;-34
2023/10/02 09:11:59;;;;;;;23.40;10.45;;;18.70;99.90;;;;;;4988333;28;20297;-34
2023/10/02 09:19:48;;;;;;;24.40;10.98;;;18.90;99.90;;;;;;4986865;28;20101;-34
2023/10/02 09:22:18;;;;;;;26.65;12.23;;;19.10;99.90;;;;;;4987470;28;20062;-37
2023/10/02 09:24:58;;;;;;;23.40;11.20;;;19.10;99.90;;;;;;4972514;28;22620;-34
2023/10/02 09:27:28;;;;;;;25.35;10.98;;;19.30;99.90;;;;;;4987475;28;20101;-34
2023/10/02 09:33:07;;;;;;;24.10;10.93;;;19.40;99.90;;;;;;4989834;28;20065;-34
2023/10/02 09:35:40;;;;;;;23.25;11.27;;;19.40;99.90;;;;;;4989644;28;20483;-34
2023/10/02 09:38:07;;;;;;;22.50;11.23;;;19.40;99.90;;;;;;4982768;28;20415;-34
2023/10/02 09:40:54;;;;;;;20.33;9.30;;;19.40;99.90;;;;;;4988699;28;20519;-33
2023/10/02 09:43:24;;;;;;;24.35;11.13;;;19.40;99.90;;;;;;4989708;28;20061;-34
2023/10/02 09:45:55;;;;;;;19.98;9.55;;;19.30;99.90;;;;;;4988375;28;20081;-34
2023/10/02 09:51:26;;;;;;;25.58;11.30;;;19.30;99.90;;;;;;4988042;28;20082;-34
2023/10/02 09:54:17;;;;;;;21.65;10.57;;;19.30;99.90;;;;;;4988775;28;20053;-34
2023/10/02 09:57:04;;;;;;;20.05;10.45;;;19.30;99.90;;;;;;4990891;28;20059;-34
2023/10/02 09:59:37;;;;;;;20.23;10.48;;;19.50;99.90;;;;;;4986787;28;20054;-34
2023/10/02 10:02:08;;;;;;;20.08;10.52;;;19.60;99.90;;;;;;4990061;28;20539;-34
2023/10/02 10:05:23;;;;;;;24.45;10.63;;;19.80;99.90;;;;;;4984573;28;20058;-34
2023/10/02 10:10:49;;;;;;;24.17;11.45;;;19.90;99.90;;;;;;4996689;28;20085;-34
2023/10/02 10:13:34;;;;;;;22.25;11.07;;;20.00;99.90;;;;;;4988301;28;20109;-35
2023/10/02 10:16:29;;;;;;;21.27;9.98;;;20.10;99.90;;;;;;4988535;28;20194;-34
2023/10/02 10:21:56;;;;;;;24.77;10.77;;;20.20;99.90;;;;;;4986650;28;20057;-34
2023/10/02 10:27:38;;;;;;;25.75;12.32;;;20.30;99.90;;;;;;4984204;28;20546;-34
2023/10/02 10:30:24;;;;;;;26.08;12.65;;;20.30;99.90;;;;;;4984127;28;20169;-34
2023/10/02 10:35:51;;;;;;;22.92;12.27;;;20.20;99.90;;;;;;4985693;28;20050;-35
2023/10/02 10:38:25;;;;;;;22.25;11.30;;;20.20;99.90;;;;;;4982974;28;20054;-35
2023/10/02 10:41:01;;;;;;;23.60;11.43;;;20.40;99.90;;;;;;4985432;28;20054;-36
2023/10/02 10:46:32;;;;;;;20.88;10.43;;;20.80;99.90;;;;;;4980574;28;20050;-35
2023/10/02 10:48:59;;;;;;;24.45;10.63;;;21.10;99.90;;;;;;4969132;28;20094;-33
2023/10/02 10:51:31;;;;;;;23.15;11.40;;;21.30;99.90;;;;;;4982994;28;20527;-34
2023/10/02 10:54:12;;;;;;;23.50;11.32;;;21.40;99.90;;;;;;4997450;28;20141;-33
2023/10/02 10:56:45;;;;;;;20.25;10.15;;;21.50;99.90;;;;;;4971495;28;20054;-35
2023/10/02 10:59:24;;;;;;;22.35;11.90;;;21.40;99.90;;;;;;4984921;28;20057;-35
2023/10/02 11:02:09;;;;;;;23.77;11.55;;;21.40;99.90;;;;;;4987608;28;20564;-33
2023/10/02 11:04:45;;;;;;;21.98;10.10;;;21.30;99.90;;;;;;4966440;28;20062;-33
2023/10/02 11:07:21;;;;;;;25.50;12.50;;;21.30;99.90;;;;;;4989088;28;20061;-42
2023/10/02 11:10:18;;;;;;;23.35;12.38;;;21.30;99.90;;;;;;4990903;28;20524;-35
2023/10/02 11:13:01;;;;;;;20.42;10.23;;;21.20;99.90;;;;;;4984354;28;20058;-33
2023/10/02 11:15:46;;;;;;;19.45;9.43;;;21.30;99.90;;;;;;4971127;28;20056;-33
2023/10/02 11:18:26;;;;;;;20.25;9.38;;;21.30;99.90;;;;;;4984423;28;20101;-33
2023/10/02 11:20:57;;;;;;;20.70;9.00;;;21.40;99.90;;;;;;4998278;28;20050;-33
2023/10/02 11:23:39;;;;;;;19.75;9.75;;;21.40;99.90;;;;;;5002039;28;20046;-33
2023/10/02 11:26:13;;;;;;;22.42;11.07;;;21.50;99.90;;;;;;4991045;28;20942;-33
2023/10/02 11:28:41;;;;;;;21.52;9.80;;;21.60;99.90;;;;;;4996871;28;20094;-33
2023/10/02 11:34:00;;;;;;;20.42;9.98;;;21.70;99.90;;;;;;4994350;28;20057;-33
2023/10/02 11:36:28;;;;;;;20.70;10.00;;;21.70;99.90;;;;;;4988959;28;20547;-34
2023/10/02 11:38:55;;;;;;;25.17;10.02;;;21.70;99.90;;;;;;4986146;28;20109;-34
2023/10/02 11:41:21;;;;;;;17.88;8.75;;;21.80;99.90;;;;;;4986653;28;20129;-35
2023/10/02 11:43:48;;;;;;;16.65;8.15;;;22.00;99.90;;;;;;4980329;28;20137;-33
2023/10/02 11:46:14;;;;;;;15.27;7.80;;;22.20;99.90;;;;;;4985432;28;20058;-33
2023/10/02 11:48:40;;;;;;;16.05;8.05;;;22.30;99.90;;;;;;4987603;28;20060;-34
2023/10/02 11:51:07;;;;;;;14.20;7.50;;;22.40;99.90;;;;;;4984763;28;20416;-33
2023/10/02 11:53:33;;;;;;;19.27;8.00;;;22.60;99.90;;;;;;4962804;28;20471;-33
2023/10/02 11:55:59;;;;;;;17.50;7.50;;;22.60;99.90;;;;;;4983085;28;20141;-33
2023/10/02 11:58:25;;;;;;;17.58;8.30;;;22.70;99.90;;;;;;4986558;28;20198;-33
2023/10/02 12:00:51;;;;;;;17.15;8.40;;;22.80;99.90;;;;;;4985389;28;20046;-34
2023/10/02 12:03:18;;;;;;;14.80;9.20;;;22.90;99.90;;;;;;4987171;28;20054;-34
2023/10/02 12:05:43;;;;;;;15.70;8.85;;;22.90;99.90;;;;;;4986387;28;20547;-34
2023/10/02 12:08:09;;;;;;;20.67;8.75;;;23.00;99.90;;;;;;4983328;28;20095;-34
2023/10/02 12:10:39;;;;;;;15.70;7.30;;;23.30;99.90;;;;;;4972221;28;20050;-34
2023/10/02 12:13:06;;;;;;;15.75;7.13;;;23.40;99.90;;;;;;4975620;28;20046;-33
2023/10/02 12:15:31;;;;;;;16.95;7.85;;;23.40;99.90;;;;;;4982541;28;20090;-34
2023/10/02 12:17:57;;;;;;;15.65;8.32;;;23.30;99.90;;;;;;4983198;28;20511;-34
2023/10/02 12:20:23;;;;;;;14.70;7.15;;;23.30;99.90;;;;;;4985366;28;20057;-33
2023/10/02 12:22:48;;;;;;;16.58;7.25;;;23.40;99.90;;;;;;4981978;28;20137;-34
2023/10/02 12:25:15;;;;;;;13.32;7.07;;;23.60;99.90;;;;;;4984405;28;20054;-38
2023/10/02 12:27:41;;;;;;;17.15;8.13;;;23.80;99.90;;;;;;4984075;28;20057;-34
2023/10/02 12:30:11;;;;;;;18.38;7.88;;;23.90;99.90;;;;;;4988548;28;20054;-33
2023/10/02 12:32:38;;;;;;;14.13;6.50;;;24.00;99.90;;;;;;4985203;28;20050;-33
2023/10/02 12:35:05;;;;;;;16.33;7.03;;;24.20;99.90;;;;;;4985168;28;20365;-34
2023/10/02 12:37:32;;;;;;;12.00;6.00;;;24.30;99.90;;;;;;4983982;28;20062;-34
2023/10/02 12:39:58;;;;;;;13.52;7.53;;;24.50;99.90;;;;;;4991790;28;20077;-34
2023/10/02 12:42:25;;;;;;;15.95;7.82;;;24.50;99.90;;;;;;4990172;28;20057;-34
2023/10/02 12:44:53;;;;;;;16.70;7.40;;;24.60;99.90;;;;;;4988295;28;20053;-34
2023/10/02 12:47:20;;;;;;;15.02;8.60;;;24.70;99.90;;;;;;4987265;28;20062;-34
2023/10/02 12:49:45;;;;;;;15.13;7.05;;;24.70;99.90;;;;;;4980949;28;20058;-34
2023/10/02 12:52:11;;;;;;;14.68;7.13;;;24.60;99.90;;;;;;4980767;28;20054;-34
2023/10/02 12:54:37;;;;;;;13.70;8.00;;;24.80;99.90;;;;;;4983091;28;20070;-34
2023/10/02 12:57:05;;;;;;;15.30;7.35;;;24.80;99.90;;;;;;4980308;28;20477;-34
2023/10/02 12:59:30;;;;;;;15.52;7.82;;;24.80;99.90;;;;;;4979695;28;20067;-34
2023/10/02 13:01:56;;;;;;;14.45;7.93;;;24.90;99.90;;;;;;4985982;28;20051;-36
2023/10/02 13:04:23;;;;;;;16.30;7.68;;;25.10;99.90;;;;;;4984080;28;20057;-34
2023/10/02 13:06:49;;;;;;;17.63;7.75;;;25.20;99.90;;;;;;4988260;28;20128;-34
2023/10/02 13:09:15;;;;;;;15.63;7.22;;;25.10;99.90;;;;;;4982219;28;20078;-34
2023/10/02 13:11:44;;;;;;;19.48;8.65;;;25.50;99.90;;;;;;4985751;28;20055;-34
2023/10/02 13:14:16;;;;;;;14.75;7.45;;;25.80;99.90;;;;;;4983925;28;20070;-34
2023/10/02 13:16:42;;;;;;;17.92;7.30;;;25.90;99.90;;;;;;4986639;28;20077;-34
2023/10/02 13:19:12;;;;;;;14.25;7.35;;;25.80;99.90;;;;;;4980290;28;21497;-36
2023/10/02 13:21:40;;;;;;;14.73;7.15;;;25.70;99.90;;;;;;5002082;28;20140;-36
2023/10/02 13:24:07;;;;;;;16.13;7.75;;;25.50;99.90;;;;;;4985249;28;20514;-34
2023/10/02 13:26:36;;;;;;;13.82;7.60;;;25.30;99.90;;;;;;4985968;28;20100;-34
2023/10/02 13:29:02;;;;;;;13.75;7.80;;;25.30;99.90;;;;;;4984286;28;20097;-34
2023/10/02 13:31:28;;;;;;;13.20;7.03;;;25.40;99.90;;;;;;4988500;28;20137;-34
2023/10/02 13:33:54;;;;;;;12.70;6.88;;;25.60;99.90;;;;;;4971544;28;20184;-34
2023/10/02 13:36:25;;;;;;;15.45;7.38;;;25.40;99.90;;;;;;4965881;28;20515;-39
2023/10/02 13:38:56;;;;;;;14.10;6.88;;;25.30;99.90;;;;;;4981869;28;20051;-34
2023/10/02 13:41:22;;;;;;;13.43;6.40;;;25.40;99.90;;;;;;4981901;28;20066;-34
2023/10/02 13:43:49;;;;;;;14.40;7.70;;;25.30;99.90;;;;;;4996864;28;20053;-34
2023/10/02 13:46:16;;;;;;;15.20;6.93;;;25.50;99.90;;;;;;4986133;28;20079;-35
2023/10/02 13:48:45;;;;;;;13.40;6.47;;;25.80;99.90;;;;;;4986360;28;20046;-34
2023/10/02 13:51:13;;;;;;;13.57;6.50;;;26.10;99.90;;;;;;4987179;28;20050;-34
2023/10/02 13:53:40;;;;;;;10.90;5.28;;;26.60;99.90;;;;;;4988971;28;20054;-34
2023/10/02 13:56:16;;;;;;;15.07;5.40;;;26.80;99.90;;;;;;4988798;28;20097;-34
2023/10/02 13:58:48;;;;;;;12.77;5.47;;;26.90;99.90;;;;;;5000923;28;20065;-35
2023/10/02 14:01:15;;;;;;;11.25;5.35;;;26.90;99.90;;;;;;4987218;28;20508;-34
2023/10/02 14:03:41;;;;;;;10.55;4.80;;;26.90;99.90;;;;;;4986172;28;20062;-33
2023/10/02 14:06:12;;;;;;;9.15;4.97;;;26.70;99.90;;;;;;4988188;28;20065;-33
2023/10/02 14:08:39;;;;;;;9.65;5.10;;;26.60;99.90;;;;;;4985223;28;20121;-33
2023/10/02 14:11:05;;;;;;;8.35;4.57;;;26.90;99.90;;;;;;4980485;28;20055;-34